Time;durP1;ratioP1;P1;durP2;ratioP2;P2;SDS_P1;SDS_P2;PMS_P1;PMS_P2;Temp;Humidity;BMP_temperature;BMP_pressure;BME280_temperature;BME280_humidity;BME280_pressure;Samples;Min_cycle;Max_cycle;Signal;HPM_P1;HPM_P2
2023/10/28 00:02:49;;;;;;;19.60;15.70;;;;;;;9.02;94.50;97044.67;224448;1293;23365;-79
2023/10/28 00:09:24;;;;;;;;;;;;;;;;;;;;;
2023/10/28 00:15:00;;;;;;;19.70;15.00;;;;;;;9.06;94.24;97056.69;224233;1294;22629;-78
2023/10/28 00:21:26;;;;;;;13.60;12.00;;;;;;;9.06;94.21;97060.84;224323;1292;22808;-78
2023/10/28 00:27:15;;;;;;;16.60;10.80;;;;;;;9.06;94.22;97065.57;224332;1295;24275;-79
2023/10/28 00:32:56;;;;;;;;;;;;;;;9.03;94.02;97073.10;224128;1292;22573;-79
2023/10/28 00:39:03;;;;;;;15.80;10.90;;;;;;;9.01;94.41;97076.89;224318;1295;22748;-79
2023/10/28 00:45:16;;;;;;;;;;;;;;;;;;;;;
2023/10/28 00:50:59;;;;;;;13.00;10.50;;;;;;;9.04;94.52;97098.91;224380;1293;22661;-79
2023/10/28 00:56:56;;;;;;;12.40;8.40;;;;;;;9.08;94.34;97102.58;224396;1280;22559;-79
2023/10/28 01:03:09;;;;;;;;;;;;;;;;;;;;;
2023/10/28 01:08:32;;;;;;;9.30;7.60;;;;;;;9.17;94.57;97106.10;224188;1294;22616;-79
2023/10/28 01:14:19;;;;;;;9.60;7.50;;;;;;;9.19;94.47;97110.50;224464;1294;22594;-79
2023/10/28 01:20:16;;;;;;;10.60;7.90;;;;;;;9.22;94.86;97116.73;224434;1294;22577;-79
2023/10/28 01:26:04;;;;;;;9.30;8.40;;;;;;;9.26;94.59;97116.20;224426;1294;22572;-79
2023/10/28 01:31:31;;;;;;;9.40;8.40;;;;;;;9.30;94.75;97117.95;224454;1291;25281;-79
2023/10/28 01:36:49;;;;;;;;;;;;;;;;;;;;;
2023/10/28 01:42:41;;;;;;;5.60;5.00;;;;;;;9.33;94.38;97119.38;224269;1294;22940;-80
2023/10/28 01:48:29;;;;;;;5.70;5.10;;;;;;;9.34;94.26;97130.58;223675;1294;385860;-79
2023/10/28 01:53:42;;;;;;;6.70;5.90;;;;;;;9.33;94.15;97134.26;224429;1294;22592;-79
2023/10/28 02:00:09;;;;;;;;;;;;;;;;;;;;;
2023/10/28 02:13:17;;;;;;;7.20;4.50;;;;;;;9.31;93.93;97151.35;222572;1300;22724;-80
2023/10/28 02:19:34;;;;;;;5.80;4.10;;;;;;;9.28;93.77;97149.63;222654;1300;25391;-80
2023/10/28 02:25:59;;;;;;;;;;;;;;;;;;;;;
2023/10/28 02:31:55;;;;;;;5.50;4.40;;;;;;;9.22;93.93;97165.58;223466;1270;24215;-80
2023/10/28 02:38:04;;;;;;;;;;;;;;;;;;;;;
2023/10/28 02:45:22;;;;;;;5.10;4.40;;;;;;;9.20;93.85;97173.54;223439;1297;22018;-79
2023/10/28 02:51:18;;;;;;;;;;;;;;;;;;;;;
2023/10/28 02:57:28;;;;;;;;;;;;;;;;;;;;;
2023/10/28 03:03:36;;;;;;;;;;;;;;;;;;;;;
2023/10/28 03:09:45;;;;;;;;;;;;;;;;;;;;;
2023/10/28 03:16:16;;;;;;;;;;;;;;;;;;;;;
2023/10/28 03:21:43;;;;;;;4.80;4.30;;;;;;;9.26;93.76;97174.83;224348;1291;22578;-79
2023/10/28 03:27:52;;;;;;;6.10;4.50;;;;;;;9.25;93.61;97178.58;224592;1291;22559;-79
2023/10/28 03:34:07;;;;;;;;;;;;;;;;;;;;;
2023/10/28 03:40:26;;;;;;;4.10;3.70;;;;;;;9.27;93.74;97185.45;223816;1291;22592;-80
2023/10/28 03:46:34;;;;;;;5.80;4.30;;;;;;;9.27;93.31;97192.29;224724;1291;22564;-80
2023/10/28 03:52:25;;;;;;;4.70;4.30;;;;;;;9.26;93.48;97188.70;224749;1291;22564;-79
2023/10/28 03:58:20;;;;;;;;;;;;;;;;;;;;;
2023/10/28 04:03:56;;;;;;;3.90;3.50;;;;;;;9.21;93.22;97206.05;224582;1291;22563;-80
2023/10/28 04:09:41;;;;;;;;;;;;;;;;;;;;;
2023/10/28 04:15:18;;;;;;;;;;;;;;;;;;;;;
2023/10/28 04:21:01;;;;;;;5.70;3.80;;;;;;;9.02;93.31;97210.95;224672;1291;22559;-79
2023/10/28 04:27:25;;;;;;;4.70;3.20;;;;;;;8.92;92.97;97212.80;224630;1291;22599;-79
2023/10/28 04:34:04;;;;;;;4.00;3.50;;;;;;;8.79;92.84;97221.27;224656;1291;22555;-80
2023/10/28 04:40:06;;;;;;;4.00;3.70;;;;;;;8.66;93.17;97229.06;224777;1291;25462;-80
2023/10/28 04:46:00;;;;;;;5.30;3.90;;;;;;;8.54;92.96;97229.70;224542;1291;22569;-79
2023/10/28 04:51:09;;;;;;;7.20;4.40;;;;;;;8.41;92.58;97232.31;224672;1291;22547;-79
2023/10/28 04:56:40;;;;;;;6.70;4.40;;;;;;;8.30;92.46;97233.38;224647;1291;22562;-80
2023/10/28 05:02:15;;;;;;;5.60;4.40;;;;;;;8.17;92.57;97243.18;224612;1275;22564;-79
2023/10/28 05:08:16;;;;;;;;;;;;;;;;;;;;;
2023/10/28 05:14:13;;;;;;;5.50;4.60;;;;;;;7.88;93.09;97238.62;224683;1291;23883;-80
2023/10/28 05:27:18;;;;;;;;;;;;;;;;;;;;;
2023/10/28 05:33:10;;;;;;;6.30;4.20;;;;;;;7.64;93.78;97258.92;224645;1291;22539;-80
2023/10/28 05:38:58;;;;;;;;;;;;;;;;;;;;;
2023/10/28 05:44:10;;;;;;;6.70;5.70;;;;;;;7.54;93.73;97267.29;224733;1291;22565;-80
2023/10/28 05:49:37;;;;;;;8.00;5.50;;;;;;;7.50;93.83;97269.04;224757;1291;22664;-79
2023/10/28 05:55:30;;;;;;;6.40;5.20;;;;;;;7.49;94.04;97277.16;224786;1291;22559;-80
2023/10/28 06:01:22;;;;;;;11.00;7.50;;;;;;;7.51;93.77;97276.63;224588;1291;21786;-80
2023/10/28 06:07:19;;;;;;;9.90;6.70;;;;;;;7.51;94.03;97282.70;224783;1291;22554;-80
2023/10/28 06:13:02;;;;;;;;;;;;;;;;;;;;;
2023/10/28 06:19:15;;;;;;;8.10;7.00;;;;;;;7.56;94.20;97300.33;224705;1291;25275;-80
2023/10/28 06:31:40;;;;;;;9.10;7.20;;;;;;;7.72;94.11;97313.17;223422;1298;22563;-80
2023/10/28 06:37:31;;;;;;;10.50;7.10;;;;;;;7.86;94.39;97326.37;223549;1298;23990;-80
2023/10/28 06:42:56;;;;;;;8.60;5.80;;;;;;;7.98;94.49;97331.83;223133;1292;23058;-79
2023/10/28 06:48:27;;;;;;;6.20;5.20;;;;;;;8.13;94.38;97338.43;223914;1292;22548;-80
2023/10/28 06:54:04;;;;;;;8.10;4.90;;;;;;;8.33;94.74;97350.58;224333;1292;22586;-81
2023/10/28 06:59:38;;;;;;;6.60;5.10;;;;;;;8.87;95.00;97354.38;224419;1286;22170;-82
2023/10/28 07:05:50;;;;;;;;;;;;;;;;;;;;;
2023/10/28 07:12:13;;;;;;;8.20;4.60;;;;;;;9.11;92.94;97369.38;224187;1289;22658;-80
2023/10/28 07:18:01;;;;;;;5.60;4.30;;;;;;;9.20;92.79;97376.86;224366;1289;25426;-81
2023/10/28 07:24:09;;;;;;;;;;;;;;;;;;;;;
2023/10/28 07:29:57;;;;;;;;;;;;;;;9.49;92.73;97389.61;224281;1291;22667;-80
2023/10/28 07:36:19;;;;;;;3.40;2.70;;;;;;;9.64;92.14;97398.66;224348;1288;22606;-80
2023/10/28 07:42:18;;;;;;;;;;;;;;;;;;;;;
2023/10/28 07:48:26;;;;;;;3.80;2.60;;;;;;;9.93;91.49;97409.20;224329;1283;23291;-81
2023/10/28 07:55:31;;;;;;;4.70;2.50;;;;;;;10.15;91.28;97413.05;224338;1287;22777;-82
2023/10/28 08:02:20;;;;;;;4.60;2.50;;;;;;;10.44;90.29;97430.48;224252;1289;22589;-83
2023/10/28 08:08:37;;;;;;;;;;;;;;;;;;;;;
2023/10/28 08:14:25;;;;;;;5.30;2.10;;;;;;;11.07;89.67;97447.98;224014;1292;22579;-81
2023/10/28 08:21:09;;;;;;;2.70;1.60;;;;;;;11.33;89.05;97456.33;223987;1289;22549;-83
2023/10/28 08:27:35;;;;;;;;;;;;;;;;;;;;;
2023/10/28 08:34:30;;;;;;;;;;;;;;;;;;;;;
2023/10/28 08:40:56;;;;;;;1.40;1.20;;;;;;;12.31;86.34;97487.80;223863;1286;22563;-83
2023/10/28 08:46:21;;;;;;;2.50;1.80;;;;;;;12.50;85.54;97495.80;224353;1292;25900;-83
2023/10/28 08:52:24;;;;;;;2.80;1.70;;;;;;;12.64;84.67;97501.39;224059;1289;24337;-83
2023/10/28 08:58:48;;;;;;;10.10;7.20;;;;;;;12.71;83.66;97508.29;224268;1289;24266;-81
2023/10/28 09:04:54;;;;;;;4.70;1.90;;;;;;;12.73;83.10;97514.80;224280;1292;22561;-83
2023/10/28 09:18:27;;;;;;;2.90;1.70;;;;;;;12.50;81.92;97511.52;221631;1302;23102;-82
2023/10/28 09:24:19;;;;;;;3.90;1.90;;;;;;;12.46;82.76;97509.79;221873;1303;22614;-82
2023/10/28 09:30:43;;;;;;;;;;;;;;;;;;;;;
2023/10/28 09:36:30;;;;;;;6.40;1.80;;;;;;;12.27;82.57;97518.21;224349;1292;25960;-83
2023/10/28 09:42:54;;;;;;;;;;;;;;;;;;;;;
2023/10/28 09:49:11;;;;;;;3.00;1.70;;;;;;;12.32;83.22;97525.91;224349;1286;22545;-83
2023/10/28 10:02:33;;;;;;;;;;;;;;;;;;;;;
2023/10/28 10:09:26;;;;;;;;;;;;;;;;;;;;;
2023/10/28 10:16:04;;;;;;;5.50;2.40;;;;;;;12.67;82.74;97536.61;223761;1292;25539;-83
2023/10/28 10:22:36;;;;;;;4.90;3.50;;;;;;;12.68;82.74;97546.75;224191;1291;22678;-83
2023/10/28 10:28:23;;;;;;;4.70;2.80;;;;;;;12.68;82.39;97555.35;224368;1285;22769;-82
2023/10/28 10:34:40;;;;;;;5.20;3.10;;;;;;;12.60;82.14;97552.35;224194;1292;22558;-83
2023/10/28 10:41:24;;;;;;;;;;;;;;;;;;;;;
2023/10/28 10:47:27;;;;;;;4.40;3.20;;;;;;;12.43;82.24;97563.88;222502;1276;22565;-81
2023/10/28 10:52:41;;;;;;;4.70;2.60;;;;;;;12.38;81.99;97566.92;222666;1295;22577;-81
2023/10/28 10:58:08;;;;;;;;;;;;;;;;;;;;;
2023/10/28 11:03:24;;;;;;;4.50;3.30;;;;;;;12.33;82.19;97565.69;223274;1291;22595;-79
2023/10/28 11:09:26;;;;;;;4.50;2.90;;;;;;;12.29;82.02;97559.54;223417;1290;22635;-81
2023/10/28 11:15:13;;;;;;;;;;;;;;;;;;;;;
2023/10/28 11:20:49;;;;;;;;;;;;;;;;;;;;;
2023/10/28 11:26:46;;;;;;;5.60;3.20;;;;;;;12.38;82.28;97566.77;224026;1295;23620;-81
2023/10/28 11:32:57;;;;;;;4.30;2.70;;;;;;;12.49;82.80;97574.98;224018;1295;24973;-80
2023/10/28 11:39:14;;;;;;;4.30;2.80;;;;;;;12.58;82.17;97576.21;223082;1295;22619;-80
2023/10/28 11:45:12;;;;;;;4.60;3.20;;;;;;;12.61;82.12;97578.66;224450;1291;23109;-80
2023/10/28 11:50:47;;;;;;;;;;;;;;;;;;;;;
2023/10/28 11:56:26;;;;;;;4.50;3.00;;;;;;;12.72;81.75;97586.33;224721;1291;25380;-80
2023/10/28 12:01:56;;;;;;;3.50;2.70;;;;;;;12.75;81.94;97583.64;224829;1291;24313;-81
2023/10/28 12:07:53;;;;;;;4.60;2.60;;;;;;;12.75;81.87;97589.17;224729;1282;22604;-81
2023/10/28 12:13:36;;;;;;;4.10;3.00;;;;;;;12.70;81.18;97591.16;224756;1291;24255;-81
2023/10/28 12:19:19;;;;;;;4.00;2.90;;;;;;;12.59;81.54;97589.46;224703;1291;22549;-81
2023/10/28 12:24:54;;;;;;;3.80;3.00;;;;;;;12.57;81.84;97587.42;224739;1291;22556;-81
2023/10/28 12:31:11;;;;;;;;;;;;;;;;;;;;;
2023/10/28 12:37:00;;;;;;;3.10;2.40;;;;;;;12.87;81.55;97584.21;224774;1291;24281;-81
2023/10/28 12:42:31;;;;;;;2.50;2.10;;;;;;;13.09;81.45;97587.23;224771;1291;24125;-81
2023/10/28 12:48:07;;;;;;;2.40;1.40;;;;;;;13.20;80.92;97594.02;224704;1291;22556;-82
2023/10/28 12:53:43;;;;;;;1.50;1.20;;;;;;;13.17;79.40;97591.52;224811;1291;22726;-81
2023/10/28 12:59:12;;;;;;;;;;;;;;;;;;;;;
2023/10/28 13:04:48;;;;;;;2.10;1.20;;;;;;;13.06;79.22;97599.79;224731;1286;22547;-81
2023/10/28 13:10:31;;;;;;;;;;;;;;;;;;;;;
2023/10/28 13:16:35;;;;;;;1.70;1.30;;;;;;;13.07;79.06;97601.41;224811;1291;22563;-81
2023/10/28 13:23:18;;;;;;;2.90;1.50;;;;;;;13.19;79.13;97609.49;224756;1291;22550;-81
2023/10/28 13:29:50;;;;;;;3.60;1.70;;;;;;;13.43;78.98;97618.58;224251;1291;22573;-81
2023/10/28 13:36:14;;;;;;;;;;;;;;;;;;;;;
2023/10/28 13:42:10;;;;;;;;;;;;;;;;;;;;;
2023/10/28 13:48:10;;;;;;;4.00;1.90;;;;;;;13.16;78.90;97642.89;220569;1291;5442808;-81
2023/10/28 13:53:59;;;;;;;;;;;;;;;;;;;;;
2023/10/28 13:59:43;;;;;;;;;;;;;;;;;;;;;
2023/10/28 14:05:21;;;;;;;3.00;2.10;;;;;;;12.66;79.72;97642.05;223657;1297;22565;-82
2023/10/28 14:11:22;;;;;;;3.80;2.40;;;;;;;12.60;80.56;97641.06;224330;1291;22584;-81
2023/10/28 14:16:52;;;;;;;4.50;2.60;;;;;;;12.56;80.78;97642.72;224616;1291;22563;-81
2023/10/28 14:22:22;;;;;;;2.50;1.80;;;;;;;12.50;80.82;97640.48;224792;1291;22571;-81
2023/10/28 14:27:39;;;;;;;3.20;2.40;;;;;;;12.47;80.99;97637.77;224813;1291;22674;-81
2023/10/28 14:32:49;;;;;;;5.70;2.50;;;;;;;12.42;81.20;97642.02;224658;1291;22556;-82
2023/10/28 14:38:15;;;;;;;2.70;2.00;;;;;;;12.36;81.06;97640.42;224602;1291;22595;-81
2023/10/28 14:44:17;;;;;;;3.20;2.20;;;;;;;12.31;81.04;97648.83;224609;1291;22559;-82
2023/10/28 14:49:44;;;;;;;2.20;1.70;;;;;;;12.28;80.96;97653.35;224573;1291;22570;-81
2023/10/28 14:55:04;;;;;;;2.50;2.00;;;;;;;12.24;80.64;97655.96;224658;1289;22560;-81
2023/10/28 15:00:18;;;;;;;3.20;2.80;;;;;;;12.22;80.74;97668.62;224676;1291;23179;-82
2023/10/28 15:06:54;;;;;;;;;;;;;;;;;;;;;
2023/10/28 15:12:57;;;;;;;2.10;1.50;;;;;;;12.14;80.95;97664.76;223573;1297;22577;-81
2023/10/28 15:18:37;;;;;;;3.30;2.00;;;;;;;12.08;80.54;97662.74;223500;1297;22645;-81
2023/10/28 15:23:59;;;;;;;3.10;2.20;;;;;;;12.02;80.77;97671.42;224333;1291;22580;-81
2023/10/28 15:29:34;;;;;;;;;;;;;;;;;;;;;
2023/10/28 15:35:10;;;;;;;5.20;3.10;;;;;;;11.78;80.79;97677.02;224615;1270;22552;-80
2023/10/28 15:41:05;;;;;;;6.40;4.20;;;;;;;11.62;80.92;97684.11;224664;1291;23033;-80
2023/10/28 15:46:48;;;;;;;;;;;;;;;;;;;;;
2023/10/28 15:52:30;;;;;;;7.50;4.40;;;;;;;11.26;81.23;97703.14;224668;1291;22560;-80
2023/10/28 15:58:01;;;;;;;8.10;4.50;;;;;;;11.13;81.58;97707.93;224365;1291;22552;-81
2023/10/28 16:03:28;;;;;;;7.60;4.90;;;;;;;11.03;81.72;97711.69;224259;1292;22585;-81
2023/10/28 16:08:53;;;;;;;10.80;5.80;;;;;;;10.95;82.02;97715.27;224169;1294;24819;-81
2023/10/28 16:15:15;;;;;;;;;;;;;;;;;;;;;
2023/10/28 16:20:50;;;;;;;11.60;6.40;;;;;;;10.74;82.53;97724.77;224491;1291;22620;-80
2023/10/28 16:26:27;;;;;;;;;;;;;;;;;;;;;
2023/10/28 16:32:45;;;;;;;;;;;;;;;;;;;;;
2023/10/28 16:46:46;;;;;;;12.80;6.70;;;;;;;10.53;83.86;97755.93;224330;1291;22564;-81
2023/10/28 16:52:36;;;;;;;9.40;6.00;;;;;;;10.64;83.76;97762.40;224738;1291;22560;-81
2023/10/28 16:58:03;;;;;;;11.00;6.20;;;;;;;10.78;83.64;97771.90;224665;1291;22584;-81
2023/10/28 17:03:45;;;;;;;10.30;5.50;;;;;;;10.92;83.32;97775.98;224775;1291;22552;-81
2023/10/28 17:09:25;;;;;;;;;;;;;;;;;;;;;
2023/10/28 17:15:03;;;;;;;10.30;6.50;;;;;;;11.08;82.93;97780.63;224638;1291;25950;-80
2023/10/28 17:20:38;;;;;;;11.40;7.50;;;;;;;11.12;82.76;97790.61;224665;1291;22572;-80
2023/10/28 17:26:08;;;;;;;10.90;6.50;;;;;;;11.13;82.78;97795.76;224647;1291;23324;-81
2023/10/28 17:31:46;;;;;;;10.50;6.40;;;;;;;11.12;82.86;97797.44;224569;1291;22659;-80
2023/10/28 17:37:20;;;;;;;10.10;7.10;;;;;;;11.10;82.89;97797.13;224592;1276;22551;-80
2023/10/28 17:42:48;;;;;;;12.40;7.90;;;;;;;11.04;82.99;97803.66;224613;1291;22615;-81
2023/10/28 17:48:11;;;;;;;15.30;8.90;;;;;;;11.01;83.06;97807.34;224670;1289;24284;-80
2023/10/28 17:53:57;;;;;;;16.90;9.70;;;;;;;10.96;83.25;97816.59;224722;1291;22678;-80
2023/10/28 17:59:22;;;;;;;15.20;9.30;;;;;;;10.92;83.51;97816.39;224708;1291;22605;-80
2023/10/28 18:05:10;;;;;;;14.10;8.80;;;;;;;10.93;83.80;97817.90;224611;1291;22575;-80
2023/10/28 18:10:34;;;;;;;14.40;8.50;;;;;;;10.95;83.95;97824.32;224690;1291;22568;-80
2023/10/28 18:16:04;;;;;;;;;;;;;;;;;;;;;
2023/10/28 18:21:47;;;;;;;13.30;8.20;;;;;;;10.89;83.84;97840.52;224687;1291;25078;-80
2023/10/28 18:27:56;;;;;;;12.20;7.40;;;;;;;10.76;83.89;97848.54;224605;1291;22600;-80
2023/10/28 18:34:03;;;;;;;10.00;6.80;;;;;;;10.65;84.30;97847.83;224708;1291;22560;-80
2023/10/28 18:39:40;;;;;;;10.40;7.00;;;;;;;10.63;84.52;97849.73;224690;1290;22554;-80
2023/10/28 18:45:22;;;;;;;13.30;6.90;;;;;;;10.68;84.68;97851.39;224586;1291;25464;-80
2023/10/28 18:50:48;;;;;;;9.50;6.00;;;;;;;10.73;84.67;97855.30;224752;1291;22539;-80
2023/10/28 18:56:57;;;;;;;10.00;6.80;;;;;;;10.77;84.79;97857.51;224325;1291;22588;-81
2023/10/28 19:02:51;;;;;;;10.40;7.20;;;;;;;10.83;84.72;97863.05;224677;1277;22590;-80
2023/10/28 19:15:36;;;;;;;;;;;;;;;;;;;;;
2023/10/28 19:21:11;;;;;;;10.30;6.70;;;;;;;10.89;84.70;97878.58;224689;1270;22582;-80
2023/10/28 19:26:43;;;;;;;9.70;5.80;;;;;;;10.89;84.65;97884.27;224626;1291;24269;-80
2023/10/28 19:32:06;;;;;;;11.50;5.40;;;;;;;10.94;84.75;97889.02;224616;1291;23436;-81
2023/10/28 19:37:34;;;;;;;8.20;4.90;;;;;;;10.95;84.64;97892.86;224672;1291;24231;-80
2023/10/28 19:43:21;;;;;;;6.90;4.80;;;;;;;10.97;84.52;97896.11;224671;1291;22574;-80
2023/10/28 19:48:50;;;;;;;7.80;5.00;;;;;;;10.99;84.46;97901.52;224597;1291;22568;-80
2023/10/28 19:54:36;;;;;;;;;;;;;;;;;;;;;
2023/10/28 20:07:17;;;;;;;8.80;5.70;;;;;;;11.02;84.28;97916.80;224121;1291;25294;-80
2023/10/28 20:13:09;;;;;;;9.40;7.00;;;;;;;10.98;84.33;97919.11;224649;1291;22631;-80
2023/10/28 20:18:43;;;;;;;10.60;7.50;;;;;;;10.95;84.29;97925.52;224616;1289;22532;-80
2023/10/28 20:24:23;;;;;;;;;;;;;;;;;;;;;
2023/10/28 20:37:36;;;;;;;9.40;5.90;;;;;;;10.90;84.56;97931.42;224746;1287;22628;-80
2023/10/28 20:43:28;;;;;;;;;;;;;;;;;;;;;
2023/10/28 20:48:59;;;;;;;8.90;5.40;;;;;;;10.93;84.42;97935.73;224660;1291;22646;-81
2023/10/28 20:54:59;;;;;;;11.90;5.40;;;;;;;10.94;84.38;97936.50;224656;1291;22593;-81
2023/10/28 21:07:08;;;;;;;8.70;5.20;;;;;;;10.99;84.30;97932.31;224726;1291;23068;-81
2023/10/28 21:12:27;;;;;;;7.90;4.00;;;;;;;11.00;84.25;97941.48;224621;1291;23041;-80
2023/10/28 21:17:41;;;;;;;6.50;4.10;;;;;;;11.01;84.22;97940.88;224608;1291;22568;-80
2023/10/28 21:22:48;;;;;;;6.30;4.00;;;;;;;11.01;84.11;97944.98;224661;1289;24265;-80
2023/10/28 21:28:05;;;;;;;8.10;4.00;;;;;;;11.00;84.12;97954.95;224627;1291;22552;-80
2023/10/28 21:33:30;;;;;;;7.80;4.50;;;;;;;10.99;84.08;97960.01;224686;1291;22591;-80
2023/10/28 21:38:49;;;;;;;6.40;3.70;;;;;;;10.99;84.03;97957.73;224651;1291;22566;-80
2023/10/28 21:44:26;;;;;;;5.20;3.40;;;;;;;10.99;83.97;97963.21;224609;1289;22708;-80
2023/10/28 21:49:48;;;;;;;8.90;3.60;;;;;;;11.01;83.98;97957.27;224623;1291;22558;-80
2023/10/28 21:55:48;;;;;;;;;;;;;;;;;;;;;
2023/10/28 22:01:52;;;;;;;;;;;;;;;;;;;;;
2023/10/28 22:07:49;;;;;;;;;;;;;;;;;;;;;
2023/10/28 22:13:17;;;;;;;6.10;3.50;;;;;;;10.86;83.53;97956.45;224650;1282;22612;-80
2023/10/28 22:18:52;;;;;;;7.40;3.90;;;;;;;10.75;83.62;97957.30;224628;1291;24265;-80
2023/10/28 22:24:29;;;;;;;6.10;3.80;;;;;;;10.66;83.63;97962.38;224629;1291;22552;-81
2023/10/28 22:30:27;;;;;;;7.00;3.90;;;;;;;10.61;83.76;97964.87;223980;1289;22874;-81
2023/10/28 22:36:16;;;;;;;7.20;4.20;;;;;;;10.51;83.76;97972.02;223889;1296;24281;-81
2023/10/28 23:03:35;;;;;;;;;;;;;;;;;;;;;
2023/10/28 23:09:35;;;;;;;6.40;4.20;;;;;;;10.32;84.53;97969.74;224684;1291;22590;-80
2023/10/28 23:15:24;;;;;;;7.60;4.70;;;;;;;10.32;84.64;97974.54;224759;1291;22566;-80
2023/10/28 23:20:50;;;;;;;9.30;5.10;;;;;;;10.28;84.65;97981.48;224735;1291;24491;-80
2023/10/28 23:26:26;;;;;;;;;;;;;;;;;;;;;
2023/10/28 23:32:26;;;;;;;5.70;4.00;;;;;;;10.24;84.76;97983.39;224657;1291;22551;-80
2023/10/28 23:38:19;;;;;;;5.80;3.60;;;;;;;10.27;84.64;97981.16;224667;1291;22570;-81
2023/10/28 23:44:11;;;;;;;;;;;;;;;;;;;;;
2023/10/28 23:50:43;;;;;;;5.80;3.70;;;;;;;10.32;84.72;97979.25;224697;1291;22575;-79
2023/10/28 23:56:38;;;;;;;7.60;3.70;;;;;;;10.34;84.73;97972.42;224114;1291;24776;-79
